Udo Maru — JM6522 — position and weather

sailwx.info

Track history (hours):
 
Tides and Currents Weather Stations Pressure Air Temp Water Temp Dewpoint Dewpoint Depression Visibility Wind Speed Wind Dir Waves Ship Positions

Udo Maru

Last reported at 2017-Jul-25 07:37 UTC. Time now 2017-Jul-25 10:27 UTC.
Position N 34°36' E 134°56'.

Length 87 m; draft 4.9 m.

Type: Cargo ship. MMSI: 431600499.

Date/timePositionNaut miles runAvg speedWind from/ knotsBaromVisibWave heightAir tempDewpointWater temp
2017-Jul-25 07:37N 34°36' E 134°56'5 8.9
2017-Jul-25 07:05N 34°37' E 135°02'1 6.7
2017-Jul-25 06:59N 34°36' E 135°03'4 8.8
2017-Jul-25 06:29N 34°36' E 135°08'611.8
2017-Jul-25 06:01N 34°36' E 135°15'611.5
2017-Jul-25 05:30N 34°36' E 135°22'4 0.5
2017-Jul-24 20:03N 34°35' E 135°27'0 0.0
2017-Jul-24 19:37N 34°35' E 135°27'0 0.0
2017-Jul-24 19:25N 34°35' E 135°27'0 0.1
2017-Jul-24 18:57N 34°35' E 135°27'2 4.8
2017-Jul-24 18:30N 34°36' E 135°25'510.7
2017-Jul-24 18:00N 34°36' E 135°18'611.1
2017-Jul-24 17:30N 34°35' E 135°11'611.9
2017-Jul-24 17:00N 34°35' E 135°04'611.8
2017-Jul-24 16:29N 34°36' E 134°57'  
2017-Jul-20 20:13N 34°37' E 134°55'312.2
2017-Jul-20 20:00N 34°37' E 134°58'611.6
2017-Jul-20 19:29N 34°36' E 135°05'510.3
2017-Jul-20 19:00N 34°31' E 135°04'611.7
2017-Jul-20 18:30N 34°25' E 135°02'1010.0
2017-Jul-20 17:31N 34°15' E 135°01'011.5
2017-Jul-20 17:29N 34°15' E 135°02'4 9.3
2017-Jul-20 17:00N 34°14' E 135°07'0 0.3
2017-Jul-20 16:30N 34°15' E 135°07'0 0.0
2017-Jul-20 16:00N 34°15' E 135°07'0 0.0
2017-Jul-20 15:30N 34°15' E 135°07'0 0.2
2017-Jul-20 15:01N 34°15' E 135°07'0 0.0
2017-Jul-20 14:00N 34°15' E 135°07'0 0.0
2017-Jul-20 13:30N 34°15' E 135°07'0 0.0
2017-Jul-20 13:00N 34°15' E 135°07'0 0.0
2017-Jul-20 12:31N 34°15' E 135°07'0 0.0
2017-Jul-20 12:00N 34°15' E 135°07'0 0.0
2017-Jul-20 11:30N 34°15' E 135°07'0 0.1
2017-Jul-20 11:01N 34°15' E 135°07'1 2.6
2017-Jul-20 10:31N 34°15' E 135°06'0 0.9
2017-Jul-20 10:01N 34°15' E 135°05'0 0.0
2017-Jul-20 09:30N 34°15' E 135°05'0 0.1
2017-Jul-20 09:00N 34°15' E 135°05'0 0.0
2017-Jul-20 08:30N 34°15' E 135°05'0 0.0
2017-Jul-20 08:01N 34°15' E 135°05'0 0.0
2017-Jul-20 07:31N 34°15' E 135°05'0 0.0
2017-Jul-20 07:01N 34°15' E 135°05'0 0.0
2017-Jul-20 06:30N 34°15' E 135°05'0 0.0
2017-Jul-20 06:01N 34°15' E 135°05'0 0.0
2017-Jul-20 05:31N 34°15' E 135°05'0 0.0
2017-Jul-20 05:00N 34°15' E 135°05'0 0.0
2017-Jul-20 04:31N 34°15' E 135°05'0 0.0
2017-Jul-20 04:01N 34°15' E 135°05'0 0.1
2017-Jul-20 03:30N 34°15' E 135°05'0 0.0
2017-Jul-20 03:01N 34°15' E 135°05'4 7.0
2017-Jul-20 02:30N 34°11' E 135°04'612.0
2017-Jul-20 02:01N 34°06' E 135°03'  
2017-Jul-17 11:35N 34°56' E 139°23'1 9.7
2017-Jul-17 11:28N 34°57' E 139°24'5 9.8
2017-Jul-17 11:00N 34°59' E 139°29'510.5
2017-Jul-17 10:30N 35°02' E 139°34'611.2
2017-Jul-17 10:00N 35°06' E 139°39'611.3
2017-Jul-17 09:30N 35°10' E 139°44'610.9
2017-Jul-17 09:00N 35°15' E 139°47'611.5
2017-Jul-17 08:30N 35°20' E 139°43'510.7
2017-Jul-17 08:01N 35°25' E 139°44'4 7.2
2017-Jul-17 07:31N 35°24' E 139°48'3 4.8
2017-Jul-17 06:52N 35°22' E 139°51'0 0.0
2017-Jul-17 06:28N 35°22' E 139°51'0 0.0
2017-Jul-17 05:58N 35°22' E 139°51'0 0.0
2017-Jul-17 05:28N 35°22' E 139°51'0 0.0
2017-Jul-17 04:46N 35°22' E 139°51'0 0.0
2017-Jul-17 04:25N 35°22' E 139°51'0 0.0
2017-Jul-17 03:58N 35°22' E 139°51'0 0.0
2017-Jul-17 03:22N 35°22' E 139°51'0 0.0
2017-Jul-17 02:58N 35°22' E 139°51'0 0.0
2017-Jul-17 02:28N 35°22' E 139°51'0 0.0
2017-Jul-17 01:55N 35°22' E 139°51'0 0.0
2017-Jul-17 01:22N 35°22' E 139°51'0 0.0
2017-Jul-17 00:58N 35°22' E 139°51'0 0.0
2017-Jul-17 00:22N 35°22' E 139°51'0 0.0
2017-Jul-16 23:52N 35°22' E 139°51'0 0.0
2017-Jul-16 23:13N 35°22' E 139°51'0 0.0
2017-Jul-16 22:55N 35°22' E 139°51'0 0.0
2017-Jul-16 22:28N 35°22' E 139°51'0 0.0
2017-Jul-16 21:58N 35°22' E 139°51'0 0.0
2017-Jul-16 21:16N 35°22' E 139°51'0 0.0
2017-Jul-16 20:52N 35°22' E 139°51'0 0.0
2017-Jul-16 20:28N 35°22' E 139°51'0 0.0
2017-Jul-16 19:58N 35°22' E 139°51'0 0.0
2017-Jul-16 19:28N 35°22' E 139°51'0 0.0
2017-Jul-16 18:58N 35°22' E 139°51'0 0.0
2017-Jul-16 18:28N 35°22' E 139°51'0 0.0
2017-Jul-16 17:58N 35°22' E 139°51'0 0.0
2017-Jul-16 17:28N 35°22' E 139°51'0 0.0
2017-Jul-16 16:46N 35°22' E 139°51'0 0.0
2017-Jul-16 16:28N 35°22' E 139°51'0 0.0
2017-Jul-16 15:52N 35°22' E 139°51'0 0.0
2017-Jul-16 15:19N 35°22' E 139°51'0 0.0
2017-Jul-16 14:46N 35°22' E 139°51'0 0.0
2017-Jul-16 14:28N 35°22' E 139°51'0 0.0
2017-Jul-16 13:58N 35°22' E 139°51'0 0.0
2017-Jul-16 13:25N 35°22' E 139°51'0 0.0
2017-Jul-16 12:58N 35°22' E 139°51'0 0.0
2017-Jul-16 12:22N 35°22' E 139°51'0 0.0
2017-Jul-16 11:58N 35°22' E 139°51'0 0.0
2017-Jul-16 11:28N 35°22' E 139°51'0 0.0
2017-Jul-16 10:58N 35°22' E 139°51'0 0.0
2017-Jul-16 10:13N 35°22' E 139°51'0 0.0
2017-Jul-16 09:25N 35°22' E 139°51'0 0.0
2017-Jul-16 08:55N 35°22' E 139°51'0 0.0
2017-Jul-16 08:07N 35°22' E 139°51'0 0.0
2017-Jul-16 07:43N 35°22' E 139°51'0 0.0
2017-Jul-16 07:28N 35°22' E 139°51'0 0.0
2017-Jul-16 06:58N 35°22' E 139°51'0 0.0
2017-Jul-16 06:28N 35°22' E 139°51'0 0.0
2017-Jul-16 05:58N 35°22' E 139°51'0 0.0
2017-Jul-16 05:28N 35°22' E 139°51'0 0.0
2017-Jul-16 04:58N 35°22' E 139°51'0 0.0
2017-Jul-16 04:28N 35°22' E 139°51'0 0.0
2017-Jul-16 03:52N 35°22' E 139°51'0 0.0
2017-Jul-16 03:22N 35°22' E 139°51'0 0.0
2017-Jul-16 02:10N 35°22' E 139°51'0 0.0
2017-Jul-16 01:43N 35°22' E 139°51'0 0.0
2017-Jul-16 00:10N 35°22' E 139°51'0 0.0
2017-Jul-15 23:37N 35°22' E 139°51'0 0.0
2017-Jul-15 23:25N 35°22' E 139°51'0 0.0
2017-Jul-15 22:52N 35°22' E 139°51'0 0.0
2017-Jul-15 21:46N 35°22' E 139°51'0 0.0
2017-Jul-15 21:22N 35°22' E 139°51'0 0.0
2017-Jul-15 20:58N 35°22' E 139°51'0 0.0
2017-Jul-15 20:28N 35°22' E 139°51'0 0.0
2017-Jul-15 19:46N 35°22' E 139°51'0 0.0
2017-Jul-15 19:28N 35°22' E 139°51'0 0.0
2017-Jul-15 18:58N 35°22' E 139°51'0 0.0
2017-Jul-15 18:28N 35°22' E 139°51'0 0.0
2017-Jul-15 17:58N 35°22' E 139°51'0 0.0
2017-Jul-15 17:28N 35°22' E 139°51'0 0.0
2017-Jul-15 16:58N 35°22' E 139°51'0 0.0
2017-Jul-15 16:28N 35°22' E 139°51'0 0.0
2017-Jul-15 15:55N 35°22' E 139°51'0 0.0
2017-Jul-15 15:28N 35°22' E 139°51'0 0.0
2017-Jul-15 14:58N 35°22' E 139°51'0 0.0
2017-Jul-15 13:58N 35°22' E 139°51'0 0.0
2017-Jul-15 13:13N 35°22' E 139°51'0 0.0
2017-Jul-15 12:58N 35°22' E 139°51'0 0.0
2017-Jul-15 12:28N 35°22' E 139°51'0 0.0
2017-Jul-15 11:58N 35°22' E 139°51'0 0.0
2017-Jul-15 11:25N 35°22' E 139°51'0 0.0
2017-Jul-15 10:58N 35°22' E 139°51'0 0.0
2017-Jul-15 10:28N 35°22' E 139°51'0 0.0
2017-Jul-15 09:58N 35°22' E 139°51'0 0.0
2017-Jul-15 09:28N 35°22' E 139°51'0 0.0
2017-Jul-15 08:58N 35°22' E 139°51'0 0.0
2017-Jul-15 08:28N 35°22' E 139°51'0 0.0
2017-Jul-15 07:52N 35°22' E 139°51'  
Track history (hours):
 
Tides and Currents Weather Stations Pressure Air Temp Water Temp Dewpoint Dewpoint Depression Visibility Wind Speed Wind Dir Waves Ship Positions

Udo Maru

Last reported at 2017-Jul-25 07:37 UTC. Time now 2017-Jul-25 10:27 UTC.
Position N 34°36' E 134°56'.

Length 87 m; draft 4.9 m.

Type: Cargo ship. MMSI: 431600499.

Date/timePositionNaut miles runAvg speedWind from/ knotsBaromVisibWave heightAir tempDewpointWater temp
2017-Jul-25 07:37N 34°36' E 134°56'5 8.9
2017-Jul-25 07:05N 34°37' E 135°02'1 6.7
2017-Jul-25 06:59N 34°36' E 135°03'4 8.8
2017-Jul-25 06:29N 34°36' E 135°08'611.8
2017-Jul-25 06:01N 34°36' E 135°15'611.5
2017-Jul-25 05:30N 34°36' E 135°22'4 0.5
2017-Jul-24 20:03N 34°35' E 135°27'0 0.0
2017-Jul-24 19:37N 34°35' E 135°27'0 0.0
2017-Jul-24 19:25N 34°35' E 135°27'0 0.1
2017-Jul-24 18:57N 34°35' E 135°27'2 4.8
2017-Jul-24 18:30N 34°36' E 135°25'510.7
2017-Jul-24 18:00N 34°36' E 135°18'611.1
2017-Jul-24 17:30N 34°35' E 135°11'611.9
2017-Jul-24 17:00N 34°35' E 135°04'611.8
2017-Jul-24 16:29N 34°36' E 134°57'  
2017-Jul-20 20:13N 34°37' E 134°55'312.2
2017-Jul-20 20:00N 34°37' E 134°58'611.6
2017-Jul-20 19:29N 34°36' E 135°05'510.3
2017-Jul-20 19:00N 34°31' E 135°04'611.7
2017-Jul-20 18:30N 34°25' E 135°02'1010.0
2017-Jul-20 17:31N 34°15' E 135°01'011.5
2017-Jul-20 17:29N 34°15' E 135°02'4 9.3
2017-Jul-20 17:00N 34°14' E 135°07'0 0.3
2017-Jul-20 16:30N 34°15' E 135°07'0 0.0
2017-Jul-20 16:00N 34°15' E 135°07'0 0.0
2017-Jul-20 15:30N 34°15' E 135°07'0 0.2
2017-Jul-20 15:01N 34°15' E 135°07'0 0.0
2017-Jul-20 14:00N 34°15' E 135°07'0 0.0
2017-Jul-20 13:30N 34°15' E 135°07'0 0.0
2017-Jul-20 13:00N 34°15' E 135°07'0 0.0
2017-Jul-20 12:31N 34°15' E 135°07'0 0.0
2017-Jul-20 12:00N 34°15' E 135°07'0 0.0
2017-Jul-20 11:30N 34°15' E 135°07'0 0.1
2017-Jul-20 11:01N 34°15' E 135°07'1 2.6
2017-Jul-20 10:31N 34°15' E 135°06'0 0.9
2017-Jul-20 10:01N 34°15' E 135°05'0 0.0
2017-Jul-20 09:30N 34°15' E 135°05'0 0.1
2017-Jul-20 09:00N 34°15' E 135°05'0 0.0
2017-Jul-20 08:30N 34°15' E 135°05'0 0.0
2017-Jul-20 08:01N 34°15' E 135°05'0 0.0
2017-Jul-20 07:31N 34°15' E 135°05'0 0.0
2017-Jul-20 07:01N 34°15' E 135°05'0 0.0
2017-Jul-20 06:30N 34°15' E 135°05'0 0.0
2017-Jul-20 06:01N 34°15' E 135°05'0 0.0
2017-Jul-20 05:31N 34°15' E 135°05'0 0.0
2017-Jul-20 05:00N 34°15' E 135°05'0 0.0
2017-Jul-20 04:31N 34°15' E 135°05'0 0.0
2017-Jul-20 04:01N 34°15' E 135°05'0 0.1
2017-Jul-20 03:30N 34°15' E 135°05'0 0.0
2017-Jul-20 03:01N 34°15' E 135°05'4 7.0
2017-Jul-20 02:30N 34°11' E 135°04'612.0
2017-Jul-20 02:01N 34°06' E 135°03'  
2017-Jul-17 11:35N 34°56' E 139°23'1 9.7
2017-Jul-17 11:28N 34°57' E 139°24'5 9.8
2017-Jul-17 11:00N 34°59' E 139°29'510.5
2017-Jul-17 10:30N 35°02' E 139°34'611.2
2017-Jul-17 10:00N 35°06' E 139°39'611.3
2017-Jul-17 09:30N 35°10' E 139°44'610.9
2017-Jul-17 09:00N 35°15' E 139°47'611.5
2017-Jul-17 08:30N 35°20' E 139°43'510.7
2017-Jul-17 08:01N 35°25' E 139°44'4 7.2
2017-Jul-17 07:31N 35°24' E 139°48'3 4.8
2017-Jul-17 06:52N 35°22' E 139°51'0 0.0
2017-Jul-17 06:28N 35°22' E 139°51'0 0.0
2017-Jul-17 05:58N 35°22' E 139°51'0 0.0
2017-Jul-17 05:28N 35°22' E 139°51'0 0.0
2017-Jul-17 04:46N 35°22' E 139°51'0 0.0
2017-Jul-17 04:25N 35°22' E 139°51'0 0.0
2017-Jul-17 03:58N 35°22' E 139°51'0 0.0
2017-Jul-17 03:22N 35°22' E 139°51'0 0.0
2017-Jul-17 02:58N 35°22' E 139°51'0 0.0
2017-Jul-17 02:28N 35°22' E 139°51'0 0.0
2017-Jul-17 01:55N 35°22' E 139°51'0 0.0
2017-Jul-17 01:22N 35°22' E 139°51'0 0.0
2017-Jul-17 00:58N 35°22' E 139°51'0 0.0
2017-Jul-17 00:22N 35°22' E 139°51'0 0.0
2017-Jul-16 23:52N 35°22' E 139°51'0 0.0
2017-Jul-16 23:13N 35°22' E 139°51'0 0.0
2017-Jul-16 22:55N 35°22' E 139°51'0 0.0
2017-Jul-16 22:28N 35°22' E 139°51'0 0.0
2017-Jul-16 21:58N 35°22' E 139°51'0 0.0
2017-Jul-16 21:16N 35°22' E 139°51'0 0.0
2017-Jul-16 20:52N 35°22' E 139°51'0 0.0
2017-Jul-16 20:28N 35°22' E 139°51'0 0.0
2017-Jul-16 19:58N 35°22' E 139°51'0 0.0
2017-Jul-16 19:28N 35°22' E 139°51'0 0.0
2017-Jul-16 18:58N 35°22' E 139°51'0 0.0
2017-Jul-16 18:28N 35°22' E 139°51'0 0.0
2017-Jul-16 17:58N 35°22' E 139°51'0 0.0
2017-Jul-16 17:28N 35°22' E 139°51'0 0.0
2017-Jul-16 16:46N 35°22' E 139°51'0 0.0
2017-Jul-16 16:28N 35°22' E 139°51'0 0.0
2017-Jul-16 15:52N 35°22' E 139°51'0 0.0
2017-Jul-16 15:19N 35°22' E 139°51'0 0.0
2017-Jul-16 14:46N 35°22' E 139°51'0 0.0
2017-Jul-16 14:28N 35°22' E 139°51'0 0.0
2017-Jul-16 13:58N 35°22' E 139°51'0 0.0
2017-Jul-16 13:25N 35°22' E 139°51'0 0.0
2017-Jul-16 12:58N 35°22' E 139°51'0 0.0
2017-Jul-16 12:22N 35°22' E 139°51'0 0.0
2017-Jul-16 11:58N 35°22' E 139°51'0 0.0
2017-Jul-16 11:28N 35°22' E 139°51'0 0.0
2017-Jul-16 10:58N 35°22' E 139°51'0 0.0
2017-Jul-16 10:13N 35°22' E 139°51'0 0.0
2017-Jul-16 09:25N 35°22' E 139°51'0 0.0
2017-Jul-16 08:55N 35°22' E 139°51'0 0.0
2017-Jul-16 08:07N 35°22' E 139°51'0 0.0
2017-Jul-16 07:43N 35°22' E 139°51'0 0.0
2017-Jul-16 07:28N 35°22' E 139°51'0 0.0
2017-Jul-16 06:58N 35°22' E 139°51'0 0.0
2017-Jul-16 06:28N 35°22' E 139°51'0 0.0
2017-Jul-16 05:58N 35°22' E 139°51'0 0.0
2017-Jul-16 05:28N 35°22' E 139°51'0 0.0
2017-Jul-16 04:58N 35°22' E 139°51'0 0.0
2017-Jul-16 04:28N 35°22' E 139°51'0 0.0
2017-Jul-16 03:52N 35°22' E 139°51'0 0.0
2017-Jul-16 03:22N 35°22' E 139°51'0 0.0
2017-Jul-16 02:10N 35°22' E 139°51'0 0.0
2017-Jul-16 01:43N 35°22' E 139°51'0 0.0
2017-Jul-16 00:10N 35°22' E 139°51'0 0.0
2017-Jul-15 23:37N 35°22' E 139°51'0 0.0
2017-Jul-15 23:25N 35°22' E 139°51'0 0.0
2017-Jul-15 22:52N 35°22' E 139°51'0 0.0
2017-Jul-15 21:46N 35°22' E 139°51'0 0.0
2017-Jul-15 21:22N 35°22' E 139°51'0 0.0
2017-Jul-15 20:58N 35°22' E 139°51'0 0.0
2017-Jul-15 20:28N 35°22' E 139°51'0 0.0
2017-Jul-15 19:46N 35°22' E 139°51'0 0.0
2017-Jul-15 19:28N 35°22' E 139°51'0 0.0
2017-Jul-15 18:58N 35°22' E 139°51'0 0.0
2017-Jul-15 18:28N 35°22' E 139°51'0 0.0
2017-Jul-15 17:58N 35°22' E 139°51'0 0.0
2017-Jul-15 17:28N 35°22' E 139°51'0 0.0
2017-Jul-15 16:58N 35°22' E 139°51'0 0.0
2017-Jul-15 16:28N 35°22' E 139°51'0 0.0
2017-Jul-15 15:55N 35°22' E 139°51'0 0.0
2017-Jul-15 15:28N 35°22' E 139°51'0 0.0
2017-Jul-15 14:58N 35°22' E 139°51'0 0.0
2017-Jul-15 13:58N 35°22' E 139°51'0 0.0
2017-Jul-15 13:13N 35°22' E 139°51'0 0.0
2017-Jul-15 12:58N 35°22' E 139°51'0 0.0
2017-Jul-15 12:28N 35°22' E 139°51'0 0.0
2017-Jul-15 11:58N 35°22' E 139°51'0 0.0
2017-Jul-15 11:25N 35°22' E 139°51'0 0.0
2017-Jul-15 10:58N 35°22' E 139°51'0 0.0
2017-Jul-15 10:28N 35°22' E 139°51'0 0.0
2017-Jul-15 09:58N 35°22' E 139°51'0 0.0
2017-Jul-15 09:28N 35°22' E 139°51'0 0.0
2017-Jul-15 08:58N 35°22' E 139°51'0 0.0
2017-Jul-15 08:28N 35°22' E 139°51'0 0.0
2017-Jul-15 07:52N 35°22' E 139°51'  

Dump ship's entire track history